Time;durP1;ratioP1;P1;durP2;ratioP2;P2;SDS_P1;SDS_P2;PMS_P1;PMS_P2;Temp;Humidity;BMP_temperature;BMP_pressure;BME280_temperature;BME280_humidity;BME280_pressure;Samples;Min_cycle;Max_cycle;Signal;HPM_P1;HPM_P2
2022/11/18 00:01:26;;;;;;;0.45;0.10;;;;;;;;;;4996048;28;20161;-83
2022/11/18 00:03:57;;;;;;;0.00;0.00;;;;;;;;;;4994633;28;20562;-82
2022/11/18 00:06:26;;;;;;;0.40;0.05;;;;;;;;;;4994337;28;20046;-83
2022/11/18 00:08:52;;;;;;;0.00;0.00;;;;;;;;;;4994704;28;20042;-82
2022/11/18 00:14:23;;;;;;;0.00;0.00;;;;;;;;;;4996022;28;20054;-83
2022/11/18 00:16:53;;;;;;;0.00;0.00;;;;;;;;;;4995721;28;20498;-83
2022/11/18 00:19:21;;;;;;;0.15;0.00;;;;;;;;;;4994439;28;20125;-83
2022/11/18 00:21:48;;;;;;;0.03;0.03;;;;;;;;;;4994313;28;20050;-82
2022/11/18 00:24:14;;;;;;;0.00;0.00;;;;;;;;;;4995708;28;20088;-83
2022/11/18 00:26:40;;;;;;;0.00;0.00;;;;;;;;;;4994120;28;20445;-82
2022/11/18 00:29:08;;;;;;;0.00;0.00;;;;;;;;;;4994403;28;20092;-82
2022/11/18 00:31:40;;;;;;;0.00;0.00;;;;;;;;;;5005036;28;20050;-83
2022/11/18 00:34:16;;;;;;;0.00;0.00;;;;;;;;;;4994178;28;20074;-83
2022/11/18 00:36:43;;;;;;;0.17;0.17;;;;;;;;;;4994037;28;20101;-83
2022/11/18 00:39:14;;;;;;;0.00;0.00;;;;;;;;;;4994725;28;20064;-82
2022/11/18 00:44:31;;;;;;;0.00;0.00;;;;;;;;;;4993944;28;20058;-82
2022/11/18 00:47:01;;;;;;;0.00;0.00;;;;;;;;;;4995078;28;20046;-82
2022/11/18 00:49:30;;;;;;;0.10;0.00;;;;;;;;;;4995341;28;20046;-82
2022/11/18 00:51:57;;;;;;;0.10;0.00;;;;;;;;;;4993523;28;20046;-82
2022/11/18 00:54:23;;;;;;;0.00;0.00;;;;;;;;;;4995277;28;20042;-83
2022/11/18 00:56:49;;;;;;;0.00;0.00;;;;;;;;;;4993514;28;20505;-83
2022/11/18 00:59:18;;;;;;;0.00;0.00;;;;;;;;;;4995028;28;20038;-83
2022/11/18 01:01:44;;;;;;;0.00;0.00;;;;;;;;;;4994637;28;20046;-83
2022/11/18 01:04:14;;;;;;;0.00;0.00;;;;;;;;;;4994910;28;20038;-82
2022/11/18 01:06:43;;;;;;;0.00;0.00;;;;;;;;;;4992956;28;20502;-82
2022/11/18 01:09:10;;;;;;;0.00;0.00;;;;;;;;;;4994067;28;20427;-82
2022/11/18 01:14:24;;;;;;;0.00;0.00;;;;;;;;;;4993667;28;20085;-82
2022/11/18 01:16:50;;;;;;;0.00;0.00;;;;;;;;;;5009616;28;20422;-82
2022/11/18 01:19:17;;;;;;;0.05;0.05;;;;;;;;;;4993247;28;20384;-82
2022/11/18 01:21:43;;;;;;;0.00;0.00;;;;;;;;;;4993245;28;20054;-82
2022/11/18 01:24:13;;;;;;;0.00;0.00;;;;;;;;;;4993303;28;20112;-82
2022/11/18 01:26:39;;;;;;;0.00;0.00;;;;;;;;;;4977687;28;20454;-82
2022/11/18 01:29:07;;;;;;;0.00;0.00;;;;;;;;;;4977105;28;20409;-82
2022/11/18 01:31:40;;;;;;;0.20;0.20;;;;;;;;;;4992813;28;20057;-82
2022/11/18 01:34:06;;;;;;;0.00;0.00;;;;;;;;;;4994196;28;20046;-82
2022/11/18 01:36:31;;;;;;;0.00;0.00;;;;;;;;;;4992779;28;20170;-83
2022/11/18 01:38:57;;;;;;;0.00;0.00;;;;;;;;;;4992340;28;20113;-83
2022/11/18 01:41:26;;;;;;;0.00;0.00;;;;;;;;;;4994107;28;20086;-83
2022/11/18 01:44:25;;;;;;;0.00;0.00;;;;;;;;;;4992722;28;20112;-83
2022/11/18 01:46:52;;;;;;;0.00;0.00;;;;;;;;;;4991837;28;20053;-83
2022/11/18 01:49:19;;;;;;;0.00;0.00;;;;;;;;;;4992706;28;20205;-82
2022/11/18 01:51:52;;;;;;;0.32;0.03;;;;;;;;;;4992803;28;20042;-83
2022/11/18 01:54:33;;;;;;;0.20;0.10;;;;;;;;;;4994045;28;20088;-82
2022/11/18 01:57:08;;;;;;;1.17;0.52;;;;;;;;;;5008749;28;20050;-82
2022/11/18 01:59:42;;;;;;;0.00;0.00;;;;;;;;;;4994112;28;20169;-83
2022/11/18 02:02:23;;;;;;;0.08;0.08;;;;;;;;;;4993997;28;20172;-83
2022/11/18 02:04:52;;;;;;;0.00;0.00;;;;;;;;;;4994039;28;20046;-83
2022/11/18 02:07:19;;;;;;;2.08;0.57;;;;;;;;;;4993303;28;20049;-83
2022/11/18 02:09:47;;;;;;;0.00;0.00;;;;;;;;;;4993987;28;20391;-83
2022/11/18 02:12:14;;;;;;;0.00;0.00;;;;;;;;;;4992593;28;20065;-83
2022/11/18 02:14:43;;;;;;;0.00;0.00;;;;;;;;;;4993585;28;20243;-83
2022/11/18 02:17:30;;;;;;;0.47;0.30;;;;;;;;;;4992199;28;20407;-83
2022/11/18 02:20:08;;;;;;;0.00;0.00;;;;;;;;;;4993339;28;20077;-83
2022/11/18 02:23:15;;;;;;;0.00;0.00;;;;;;;;;;4992139;28;20084;-83
2022/11/18 02:25:48;;;;;;;0.00;0.00;;;;;;;;;;4933089;29;20089;-83
2022/11/18 02:28:50;;;;;;;0.00;0.00;;;;;;;;;;4988152;28;20065;-83
2022/11/18 02:31:41;;;;;;;0.00;0.00;;;;;;;;;;4932560;29;20047;-83
2022/11/18 02:34:33;;;;;;;0.00;0.00;;;;;;;;;;4902208;29;20050;-83
2022/11/18 02:37:06;;;;;;;0.00;0.00;;;;;;;;;;4984980;28;20055;-83
2022/11/18 02:39:50;;;;;;;0.20;0.10;;;;;;;;;;4992988;28;20559;-83
2022/11/18 02:42:16;;;;;;;0.00;0.00;;;;;;;;;;4993508;28;20050;-83
2022/11/18 02:45:08;;;;;;;0.00;0.00;;;;;;;;;;4976047;28;20133;-83
2022/11/18 02:47:42;;;;;;;0.40;0.40;;;;;;;;;;4991261;28;20039;-82
2022/11/18 02:50:11;;;;;;;0.00;0.00;;;;;;;;;;4993771;28;20368;-82
2022/11/18 02:52:38;;;;;;;0.68;0.10;;;;;;;;;;4992985;28;20503;-83
2022/11/18 02:55:08;;;;;;;0.00;0.00;;;;;;;;;;4993586;28;20125;-83
2022/11/18 02:57:37;;;;;;;0.00;0.00;;;;;;;;;;4991771;28;20038;-83
2022/11/18 03:00:03;;;;;;;0.22;0.20;;;;;;;;;;4993436;28;20081;-83
2022/11/18 03:02:40;;;;;;;0.00;0.00;;;;;;;;;;4993139;28;20097;-83
2022/11/18 03:05:09;;;;;;;0.00;0.00;;;;;;;;;;4993454;28;20047;-82
2022/11/18 03:07:39;;;;;;;0.00;0.00;;;;;;;;;;4991605;28;20080;-83
2022/11/18 03:10:06;;;;;;;0.03;0.03;;;;;;;;;;4992288;28;20495;-83
2022/11/18 03:12:35;;;;;;;0.00;0.00;;;;;;;;;;4991588;28;20046;-83
2022/11/18 03:15:05;;;;;;;0.00;0.00;;;;;;;;;;4991981;28;20073;-83
2022/11/18 03:17:45;;;;;;;0.00;0.00;;;;;;;;;;4992954;28;20065;-83
2022/11/18 03:20:47;;;;;;;0.00;0.00;;;;;;;;;;4993330;28;20534;-84
2022/11/18 03:23:22;;;;;;;0.00;0.00;;;;;;;;;;4917012;29;20047;-83
2022/11/18 03:26:23;;;;;;;0.00;0.00;;;;;;;;;;4933472;29;20051;-83
2022/11/18 03:29:12;;;;;;;0.05;0.05;;;;;;;;;;4858125;29;20046;-83
2022/11/18 03:31:55;;;;;;;0.00;0.00;;;;;;;;;;4894637;29;20062;-83
2022/11/18 03:34:28;;;;;;;0.65;0.30;;;;;;;;;;4920856;29;20520;-83
2022/11/18 03:36:56;;;;;;;0.00;0.00;;;;;;;;;;4927011;28;20521;-83
2022/11/18 03:39:23;;;;;;;0.00;0.00;;;;;;;;;;4995966;28;20058;-83
2022/11/18 03:42:09;;;;;;;0.00;0.00;;;;;;;;;;4995196;28;20105;-83
2022/11/18 03:45:02;;;;;;;0.00;0.00;;;;;;;;;;4996353;28;20483;-83
2022/11/18 03:47:31;;;;;;;0.00;0.00;;;;;;;;;;4994596;28;20034;-83
2022/11/18 03:50:05;;;;;;;0.20;0.20;;;;;;;;;;4995371;28;20514;-83
2022/11/18 03:52:32;;;;;;;0.00;0.00;;;;;;;;;;4995985;28;20490;-82
2022/11/18 03:55:02;;;;;;;0.00;0.00;;;;;;;;;;4994927;28;20132;-83
2022/11/18 03:57:50;;;;;;;0.00;0.00;;;;;;;;;;4994706;28;20049;-83
2022/11/18 04:00:19;;;;;;;0.20;0.10;;;;;;;;;;4995986;28;20129;-83
2022/11/18 04:02:45;;;;;;;0.00;0.00;;;;;;;;;;4995889;28;20038;-83
2022/11/18 04:05:13;;;;;;;0.00;0.00;;;;;;;;;;4994683;28;20077;-83
2022/11/18 04:07:51;;;;;;;0.00;0.00;;;;;;;;;;4993380;28;20495;-84
2022/11/18 04:10:21;;;;;;;0.00;0.00;;;;;;;;;;4996097;28;20062;-83
2022/11/18 04:12:59;;;;;;;0.00;0.00;;;;;;;;;;4995703;28;20451;-84
2022/11/18 04:15:25;;;;;;;0.00;0.00;;;;;;;;;;4995760;28;20483;-83
2022/11/18 04:17:51;;;;;;;0.00;0.00;;;;;;;;;;4994212;28;20053;-83
2022/11/18 04:20:21;;;;;;;0.00;0.00;;;;;;;;;;4994607;28;20077;-83
2022/11/18 04:22:47;;;;;;;0.10;0.05;;;;;;;;;;4995411;28;20117;-84
2022/11/18 04:25:19;;;;;;;0.00;0.00;;;;;;;;;;4994493;28;20042;-83
2022/11/18 04:27:45;;;;;;;0.00;0.00;;;;;;;;;;5023145;23;20564;-83
2022/11/18 04:30:11;;;;;;;0.00;0.00;;;;;;;;;;4995737;28;20077;-83
2022/11/18 04:32:40;;;;;;;0.00;0.00;;;;;;;;;;4995509;28;20039;-83
2022/11/18 04:35:08;;;;;;;0.00;0.00;;;;;;;;;;4978300;28;20046;-83
2022/11/18 04:37:37;;;;;;;0.00;0.00;;;;;;;;;;4993868;28;20483;-83
2022/11/18 04:40:11;;;;;;;0.57;0.57;;;;;;;;;;4995425;28;20098;-83
2022/11/18 04:42:39;;;;;;;0.00;0.00;;;;;;;;;;4995449;28;20042;-83
2022/11/18 04:45:06;;;;;;;0.20;0.10;;;;;;;;;;4993970;28;20053;-83
2022/11/18 04:47:34;;;;;;;0.00;0.00;;;;;;;;;;4994959;28;20391;-83
2022/11/18 04:50:00;;;;;;;0.00;0.00;;;;;;;;;;4977797;28;20134;-83
2022/11/18 04:52:27;;;;;;;0.73;0.20;;;;;;;;;;4993652;28;20077;-83
2022/11/18 04:54:53;;;;;;;0.00;0.00;;;;;;;;;;4993806;28;20046;-83
2022/11/18 04:57:22;;;;;;;0.00;0.00;;;;;;;;;;4993431;28;20100;-83
2022/11/18 04:59:48;;;;;;;0.00;0.00;;;;;;;;;;4993650;28;20049;-83
2022/11/18 05:02:15;;;;;;;0.00;0.00;;;;;;;;;;4993836;28;20124;-84
2022/11/18 05:04:48;;;;;;;0.00;0.00;;;;;;;;;;4993540;28;20096;-83
2022/11/18 05:07:15;;;;;;;0.00;0.00;;;;;;;;;;4994767;28;21724;-84
2022/11/18 05:09:41;;;;;;;0.00;0.00;;;;;;;;;;4993443;28;20042;-83
2022/11/18 05:15:05;;;;;;;0.00;0.00;;;;;;;;;;4993322;28;20054;-83
2022/11/18 05:17:31;;;;;;;0.00;0.00;;;;;;;;;;4976759;28;20053;-83
2022/11/18 05:19:57;;;;;;;0.00;0.00;;;;;;;;;;4993324;28;20046;-82
2022/11/18 05:22:23;;;;;;;0.00;0.00;;;;;;;;;;4977392;28;20046;-83
2022/11/18 05:24:50;;;;;;;0.00;0.00;;;;;;;;;;4993410;28;20077;-83
2022/11/18 05:27:16;;;;;;;0.00;0.00;;;;;;;;;;4976536;28;20039;-82
2022/11/18 05:29:45;;;;;;;0.00;0.00;;;;;;;;;;4994330;28;20121;-83
2022/11/18 05:32:11;;;;;;;0.00;0.00;;;;;;;;;;4992993;28;20061;-83
2022/11/18 05:34:41;;;;;;;0.00;0.00;;;;;;;;;;4992828;28;20042;-81
2022/11/18 05:37:07;;;;;;;0.00;0.00;;;;;;;;;;4977139;28;20391;-82
2022/11/18 05:39:33;;;;;;;0.00;0.00;;;;;;;;;;4994336;28;20046;-83
2022/11/18 05:44:44;;;;;;;0.80;0.40;;;;;;;;;;4992534;28;20046;-83
2022/11/18 05:47:10;;;;;;;0.40;0.40;;;;;;;;;;4992991;28;20515;-83
2022/11/18 05:49:36;;;;;;;0.00;0.00;;;;;;;;;;4992315;28;20141;-83
2022/11/18 05:52:06;;;;;;;0.00;0.00;;;;;;;;;;4992394;28;20074;-83
2022/11/18 05:54:38;;;;;;;0.00;0.00;;;;;;;;;;4992090;28;20057;-83
2022/11/18 05:57:04;;;;;;;0.05;0.05;;;;;;;;;;4992120;28;20046;-83
2022/11/18 05:59:36;;;;;;;0.00;0.00;;;;;;;;;;4993729;28;20046;-83
2022/11/18 06:02:08;;;;;;;0.00;0.00;;;;;;;;;;4975942;28;20129;-84
2022/11/18 06:04:52;;;;;;;0.00;0.00;;;;;;;;;;4993151;28;20038;-86
2022/11/18 06:07:24;;;;;;;0.13;0.00;;;;;;;;;;4992128;28;20078;-83
2022/11/18 06:09:51;;;;;;;0.30;0.10;;;;;;;;;;4975726;28;20046;-85
2022/11/18 06:12:21;;;;;;;0.00;0.00;;;;;;;;;;4992028;28;20049;-83
2022/11/18 06:14:51;;;;;;;0.00;0.00;;;;;;;;;;4991771;28;20041;-83
2022/11/18 06:17:26;;;;;;;0.00;0.00;;;;;;;;;;4975822;28;20126;-82
2022/11/18 06:19:52;;;;;;;0.00;0.00;;;;;;;;;;4975780;28;20057;-83
2022/11/18 06:22:18;;;;;;;0.00;0.00;;;;;;;;;;4991991;28;20038;-83
2022/11/18 06:24:46;;;;;;;0.00;0.00;;;;;;;;;;4991750;28;20124;-83
2022/11/18 06:27:12;;;;;;;0.00;0.00;;;;;;;;;;4992225;28;20049;-85
2022/11/18 06:29:39;;;;;;;0.00;0.00;;;;;;;;;;4992127;28;20097;-84
2022/11/18 06:32:05;;;;;;;0.00;0.00;;;;;;;;;;4991956;28;20198;-86
2022/11/18 06:34:59;;;;;;;0.00;0.00;;;;;;;;;;4976423;28;20044;-84
2022/11/18 06:37:26;;;;;;;0.00;0.00;;;;;;;;;;4997312;23;20133;-84
2022/11/18 06:39:56;;;;;;;0.00;0.00;;;;;;;;;;4956278;28;20055;-84
2022/11/18 06:45:10;;;;;;;0.00;0.00;;;;;;;;;;4959020;28;20050;-84
2022/11/18 06:47:41;;;;;;;0.00;0.00;;;;;;;;;;4956494;28;20496;-84
2022/11/18 06:50:07;;;;;;;0.00;0.00;;;;;;;;;;4972807;28;20074;-84
2022/11/18 06:52:51;;;;;;;0.00;0.00;;;;;;;;;;4987054;28;20045;-84
2022/11/18 06:55:19;;;;;;;0.00;0.00;;;;;;;;;;4991520;28;20133;-83
2022/11/18 06:57:45;;;;;;;0.65;0.30;;;;;;;;;;4975762;28;20143;-85
2022/11/18 07:00:14;;;;;;;0.00;0.00;;;;;;;;;;4991583;28;20048;-84
2022/11/18 07:02:44;;;;;;;0.00;0.00;;;;;;;;;;4987866;28;20043;-84
2022/11/18 07:05:12;;;;;;;0.10;0.03;;;;;;;;;;4971966;28;20417;-83
2022/11/18 07:07:39;;;;;;;0.00;0.00;;;;;;;;;;4959702;28;20038;-85
2022/11/18 07:10:06;;;;;;;0.00;0.00;;;;;;;;;;4959651;28;20038;-84
2022/11/18 07:12:36;;;;;;;0.00;0.00;;;;;;;;;;4975878;28;20388;-85
2022/11/18 07:15:02;;;;;;;0.15;0.15;;;;;;;;;;4976989;28;20047;-85
2022/11/18 07:17:36;;;;;;;0.00;0.00;;;;;;;;;;4977028;28;20133;-85
2022/11/18 07:20:05;;;;;;;0.00;0.00;;;;;;;;;;4959470;28;20058;-86
2022/11/18 07:22:32;;;;;;;0.17;0.15;;;;;;;;;;4975994;28;20330;-85
2022/11/18 07:25:02;;;;;;;0.25;0.13;;;;;;;;;;4982220;28;20054;-85
2022/11/18 07:27:31;;;;;;;0.00;0.00;;;;;;;;;;4995132;28;20089;-84
2022/11/18 07:29:57;;;;;;;0.00;0.00;;;;;;;;;;4978907;28;20042;-84
2022/11/18 07:32:24;;;;;;;0.00;0.00;;;;;;;;;;4995225;28;20042;-84
2022/11/18 07:34:52;;;;;;;0.00;0.00;;;;;;;;;;4978410;28;20434;-84
2022/11/18 07:37:21;;;;;;;0.00;0.00;;;;;;;;;;4985253;28;20066;-85
2022/11/18 07:39:47;;;;;;;0.20;0.03;;;;;;;;;;4975549;28;20462;-85
2022/11/18 07:42:14;;;;;;;0.00;0.00;;;;;;;;;;4960295;28;20125;-85
2022/11/18 07:44:42;;;;;;;0.00;0.00;;;;;;;;;;4980046;28;20440;-85
2022/11/18 07:47:09;;;;;;;0.00;0.00;;;;;;;;;;4975217;28;20054;-84
2022/11/18 07:49:35;;;;;;;0.00;0.00;;;;;;;;;;4970669;28;20045;-85
2022/11/18 07:52:01;;;;;;;0.00;0.00;;;;;;;;;;4976350;28;20058;-86
2022/11/18 07:54:28;;;;;;;0.10;0.03;;;;;;;;;;4958610;28;20062;-86
2022/11/18 07:56:54;;;;;;;0.00;0.00;;;;;;;;;;4959361;28;20102;-85
2022/11/18 07:59:20;;;;;;;0.00;0.00;;;;;;;;;;4981408;28;20129;-85
2022/11/18 08:01:56;;;;;;;0.00;0.00;;;;;;;;;;4978557;28;20041;-85
2022/11/18 08:04:23;;;;;;;0.00;0.00;;;;;;;;;;4994263;28;20124;-85
2022/11/18 08:06:50;;;;;;;0.00;0.00;;;;;;;;;;4994410;28;20038;-86
2022/11/18 08:09:16;;;;;;;0.00;0.00;;;;;;;;;;4994432;28;20109;-86
2022/11/18 08:11:46;;;;;;;0.00;0.00;;;;;;;;;;4994351;28;20045;-85
2022/11/18 08:14:13;;;;;;;0.20;0.15;;;;;;;;;;4978581;28;20446;-82
2022/11/18 08:16:41;;;;;;;0.30;0.30;;;;;;;;;;4994383;28;20054;-87
2022/11/18 08:19:08;;;;;;;0.00;0.00;;;;;;;;;;4976920;28;20070;-83
2022/11/18 08:21:37;;;;;;;0.00;0.00;;;;;;;;;;4993595;28;20113;-83
2022/11/18 08:24:03;;;;;;;0.00;0.00;;;;;;;;;;4995797;28;20598;-82
2022/11/18 08:26:30;;;;;;;0.25;0.05;;;;;;;;;;4978850;28;20038;-83
2022/11/18 08:29:05;;;;;;;0.00;0.00;;;;;;;;;;4995477;28;20035;-83
2022/11/18 08:31:46;;;;;;;0.03;0.03;;;;;;;;;;4995548;28;20045;-82
2022/11/18 08:34:16;;;;;;;0.00;0.00;;;;;;;;;;4995709;28;20038;-83
2022/11/18 08:36:42;;;;;;;0.43;0.00;;;;;;;;;;4995857;28;20049;-82
2022/11/18 08:39:11;;;;;;;0.00;0.00;;;;;;;;;;4993482;28;20388;-82
2022/11/18 08:41:42;;;;;;;0.00;0.00;;;;;;;;;;4995150;28;20117;-82
2022/11/18 08:44:19;;;;;;;0.40;0.00;;;;;;;;;;4995586;28;20042;-83
2022/11/18 08:46:46;;;;;;;0.00;0.00;;;;;;;;;;4993763;28;20034;-83
2022/11/18 08:49:15;;;;;;;0.00;0.00;;;;;;;;;;4977613;28;20053;-83
2022/11/18 08:51:41;;;;;;;0.00;0.00;;;;;;;;;;4961779;28;20049;-83
2022/11/18 08:54:07;;;;;;;0.00;0.00;;;;;;;;;;4994177;28;20054;-84
2022/11/18 08:56:33;;;;;;;0.00;0.00;;;;;;;;;;4995219;28;20202;-84
2022/11/18 08:58:59;;;;;;;0.00;0.00;;;;;;;;;;4993799;28;20408;-90
2022/11/18 09:01:26;;;;;;;0.00;0.00;;;;;;;;;;4985486;28;20258;-84
2022/11/18 09:03:52;;;;;;;0.00;0.00;;;;;;;;;;5014324;28;20048;-85
2022/11/18 09:06:23;;;;;;;0.00;0.00;;;;;;;;;;5013124;28;20128;-85
2022/11/18 09:08:49;;;;;;;0.00;0.00;;;;;;;;;;5013092;28;20046;-84
2022/11/18 09:11:20;;;;;;;0.00;0.00;;;;;;;;;;4996609;28;20074;-85
2022/11/18 09:13:47;;;;;;;0.00;0.00;;;;;;;;;;4996980;28;20073;-84
2022/11/18 09:16:13;;;;;;;0.20;0.10;;;;;;;;;;4996497;28;20041;-84
2022/11/18 09:18:39;;;;;;;0.00;0.00;;;;;;;;;;5012869;28;20080;-84
2022/11/18 09:21:07;;;;;;;0.00;0.00;;;;;;;;;;4996459;28;20038;-84
2022/11/18 09:23:34;;;;;;;0.00;0.00;;;;;;;;;;5013416;28;20522;-84
2022/11/18 09:26:05;;;;;;;0.00;0.00;;;;;;;;;;4996416;28;20096;-84
2022/11/18 09:28:35;;;;;;;0.00;0.00;;;;;;;;;;5013599;28;20544;-83
2022/11/18 09:31:08;;;;;;;0.00;0.00;;;;;;;;;;5014050;28;20049;-85
2022/11/18 09:33:35;;;;;;;0.00;0.00;;;;;;;;;;4996279;28;20073;-84
2022/11/18 09:36:01;;;;;;;0.00;0.00;;;;;;;;;;5012175;28;20044;-83
2022/11/18 09:38:36;;;;;;;0.00;0.00;;;;;;;;;;5012264;28;20089;-84
2022/11/18 09:41:05;;;;;;;0.00;0.00;;;;;;;;;;5012508;28;20053;-84
2022/11/18 09:43:49;;;;;;;1.13;0.08;;;;;;;;;;4996124;28;20503;-84
2022/11/18 09:46:36;;;;;;;0.00;0.00;;;;;;;;;;5012282;28;20041;-83
2022/11/18 09:49:13;;;;;;;0.00;0.00;;;;;;;;;;5013811;28;20045;-83
2022/11/18 09:51:42;;;;;;;0.00;0.00;;;;;;;;;;4980503;28;20539;-84
2022/11/18 09:54:19;;;;;;;0.13;0.13;;;;;;;;;;4996157;28;20038;-83
2022/11/18 09:56:47;;;;;;;0.30;0.08;;;;;;;;;;4996068;28;20088;-84
2022/11/18 09:59:13;;;;;;;0.00;0.00;;;;;;;;;;5012299;28;20084;-84
2022/11/18 10:01:40;;;;;;;0.00;0.00;;;;;;;;;;5013457;28;20070;-84
2022/11/18 10:04:14;;;;;;;0.00;0.00;;;;;;;;;;4995749;28;20152;-83
2022/11/18 10:06:40;;;;;;;0.00;0.00;;;;;;;;;;4995518;28;20100;-84
2022/11/18 10:09:26;;;;;;;0.35;0.15;;;;;;;;;;5012031;28;20038;-83
2022/11/18 10:12:34;;;;;;;0.00;0.00;;;;;;;;;;5013258;28;20044;-83
2022/11/18 10:15:21;;;;;;;0.00;0.00;;;;;;;;;;5008901;28;20061;-84
2022/11/18 10:17:47;;;;;;;;;;;;;;;;;;5014845;28;20054;-85
2022/11/18 10:20:30;;;;;;;0.00;0.00;;;;;;;;;;5014515;28;20318;-84
2022/11/18 10:23:04;;;;;;;0.00;0.00;;;;;;;;;;5012207;28;20046;-84
2022/11/18 10:25:31;;;;;;;0.00;0.00;;;;;;;;;;4979462;28;20054;-84
2022/11/18 10:28:01;;;;;;;0.00;0.00;;;;;;;;;;5011997;28;20042;-84
2022/11/18 10:30:30;;;;;;;0.00;0.00;;;;;;;;;;5012060;28;20128;-85
2022/11/18 10:32:59;;;;;;;0.10;0.10;;;;;;;;;;4995653;28;20080;-84
2022/11/18 10:35:37;;;;;;;0.00;0.00;;;;;;;;;;5013394;28;20395;-84
2022/11/18 10:38:06;;;;;;;0.45;0.00;;;;;;;;;;5012939;28;20127;-84
2022/11/18 10:40:38;;;;;;;0.00;0.00;;;;;;;;;;5014196;28;20069;-84
2022/11/18 10:43:06;;;;;;;0.00;0.00;;;;;;;;;;5016141;28;20125;-84
2022/11/18 10:45:33;;;;;;;0.00;0.00;;;;;;;;;;4999535;28;20042;-85
2022/11/18 10:48:09;;;;;;;0.85;0.10;;;;;;;;;;4999342;28;20116;-85
2022/11/18 10:50:40;;;;;;;0.05;0.00;;;;;;;;;;5017381;28;20038;-84
2022/11/18 10:53:31;;;;;;;0.00;0.00;;;;;;;;;;4998495;28;20050;-84
2022/11/18 10:56:02;;;;;;;0.00;0.00;;;;;;;;;;5006839;28;20042;-85
2022/11/18 10:58:29;;;;;;;0.00;0.00;;;;;;;;;;4999836;28;20435;-81
2022/11/18 11:01:13;;;;;;;1.48;1.38;;;;;;;;;;5016772;28;20033;-84
2022/11/18 11:04:05;;;;;;;0.00;0.00;;;;;;;;;;5016000;28;20046;-84
2022/11/18 11:06:37;;;;;;;0.00;0.00;;;;;;;;;;5006407;28;20042;-83
2022/11/18 11:09:23;;;;;;;0.00;0.00;;;;;;;;;;5016957;28;20038;-84
2022/11/18 11:12:04;;;;;;;0.00;0.00;;;;;;;;;;5015545;28;20041;-84
2022/11/18 11:14:50;;;;;;;0.00;0.00;;;;;;;;;;5015704;28;20537;-85
2022/11/18 11:17:16;;;;;;;;;;;;;;;;;;5015619;28;20487;-85
2022/11/18 11:20:12;;;;;;;0.00;0.00;;;;;;;;;;5000395;28;19926;-85
2022/11/18 11:22:38;;;;;;;0.60;0.35;;;;;;;;;;5015184;28;20068;-86
2022/11/18 11:25:45;;;;;;;0.10;0.10;;;;;;;;;;5016757;28;20042;-86
2022/11/18 11:28:30;;;;;;;0.00;0.00;;;;;;;;;;4920659;29;20044;-85
2022/11/18 11:31:15;;;;;;;0.10;0.10;;;;;;;;;;5008347;28;20139;-84
2022/11/18 11:34:04;;;;;;;0.00;0.00;;;;;;;;;;5015177;28;20204;-85
2022/11/18 11:36:50;;;;;;;0.20;0.10;;;;;;;;;;5015062;28;20453;-85
2022/11/18 11:39:38;;;;;;;0.00;0.00;;;;;;;;;;5014772;28;20058;-84
2022/11/18 11:42:24;;;;;;;0.00;0.00;;;;;;;;;;5014741;28;20046;-84
2022/11/18 11:44:51;;;;;;;;;;;;;;;;;;5015136;28;20077;-84
2022/11/18 11:47:45;;;;;;;0.00;0.00;;;;;;;;;;5014472;28;20425;-85
2022/11/18 11:53:58;;;;;;;0.00;0.00;;;;;;;;;;4955351;29;20043;-84
2022/11/18 11:56:31;;;;;;;0.00;0.00;;;;;;;;;;5014052;28;20081;-85
2022/11/18 11:59:17;;;;;;;0.13;0.10;;;;;;;;;;5014215;28;20089;-84
2022/11/18 12:02:05;;;;;;;0.00;0.00;;;;;;;;;;5015868;28;20049;-84
2022/11/18 12:04:51;;;;;;;1.00;0.30;;;;;;;;;;5014850;28;20041;-85
2022/11/18 12:07:21;;;;;;;0.00;0.00;;;;;;;;;;5013980;28;20493;-90
2022/11/18 12:09:59;;;;;;;0.00;0.00;;;;;;;;;;5015708;28;20125;-87
2022/11/18 12:12:33;;;;;;;0.00;0.00;;;;;;;;;;5014274;28;20491;-87
2022/11/18 12:15:06;;;;;;;0.28;0.28;;;;;;;;;;5014292;28;20068;-86
2022/11/18 12:17:44;;;;;;;0.00;0.00;;;;;;;;;;5015022;28;20557;-85
2022/11/18 12:20:29;;;;;;;0.05;0.00;;;;;;;;;;5014110;28;20045;-85
2022/11/18 12:23:10;;;;;;;0.00;0.00;;;;;;;;;;4997822;28;20305;-84
2022/11/18 12:25:54;;;;;;;0.00;0.00;;;;;;;;;;4998030;28;20046;-84
2022/11/18 12:28:37;;;;;;;0.00;0.00;;;;;;;;;;5013869;28;20407;-84
2022/11/18 12:31:18;;;;;;;0.00;0.00;;;;;;;;;;5013897;28;20061;-85
2022/11/18 12:33:45;;;;;;;0.00;0.00;;;;;;;;;;5013917;28;20057;-85
2022/11/18 12:36:42;;;;;;;0.00;0.00;;;;;;;;;;5013840;28;20482;-83
2022/11/18 12:39:24;;;;;;;0.00;0.00;;;;;;;;;;5008966;28;20058;-83
2022/11/18 12:44:35;;;;;;;0.00;0.00;;;;;;;;;;5013690;28;20045;-84
2022/11/18 12:47:02;;;;;;;0.38;0.05;;;;;;;;;;5013489;28;20125;-84
2022/11/18 12:49:31;;;;;;;3.83;0.98;;;;;;;;;;5013550;28;20049;-84
2022/11/18 12:52:01;;;;;;;0.00;0.00;;;;;;;;;;4996835;28;20556;-84
2022/11/18 12:54:27;;;;;;;0.75;0.10;;;;;;;;;;4997558;28;20129;-84
2022/11/18 12:56:54;;;;;;;0.00;0.00;;;;;;;;;;4997392;28;20131;-84
2022/11/18 12:59:28;;;;;;;0.32;0.20;;;;;;;;;;5013119;28;20048;-84
2022/11/18 13:02:16;;;;;;;0.00;0.00;;;;;;;;;;5013340;28;20042;-85
2022/11/18 13:04:42;;;;;;;0.00;0.00;;;;;;;;;;5012684;28;20096;-84
2022/11/18 13:09:58;;;;;;;1.65;0.25;;;;;;;;;;4999480;28;20037;-85
2022/11/18 13:12:27;;;;;;;0.00;0.00;;;;;;;;;;5013282;28;20054;-85
2022/11/18 13:17:53;;;;;;;0.25;0.10;;;;;;;;;;5013195;28;20145;-85
2022/11/18 13:20:21;;;;;;;0.47;0.38;;;;;;;;;;5013186;28;20128;-85
2022/11/18 13:25:37;;;;;;;1.10;0.80;;;;;;;;;;5014658;28;20053;-85
2022/11/18 13:28:10;;;;;;;0.00;0.00;;;;;;;;;;5012825;28;20429;-87
2022/11/18 13:30:37;;;;;;;0.00;0.00;;;;;;;;;;5012862;28;20045;-85
2022/11/18 13:33:03;;;;;;;0.00;0.00;;;;;;;;;;5012415;28;20077;-85
2022/11/18 13:35:29;;;;;;;0.88;0.30;;;;;;;;;;5013993;28;20081;-86
2022/11/18 13:37:56;;;;;;;0.00;0.00;;;;;;;;;;5012637;28;20112;-86
2022/11/18 13:41:07;;;;;;;0.00;0.00;;;;;;;;;;5013072;28;20041;-85
2022/11/18 13:43:35;;;;;;;0.00;0.00;;;;;;;;;;4985330;28;20112;-85
2022/11/18 13:46:03;;;;;;;0.00;0.00;;;;;;;;;;4996178;28;20157;-85
2022/11/18 13:48:30;;;;;;;0.00;0.00;;;;;;;;;;4972596;28;20069;-86
2022/11/18 13:50:58;;;;;;;0.00;0.00;;;;;;;;;;4995418;28;20049;-86
2022/11/18 13:53:29;;;;;;;0.00;0.00;;;;;;;;;;5012151;28;20042;-84
2022/11/18 13:56:01;;;;;;;0.00;0.00;;;;;;;;;;4996004;28;20038;-85
2022/11/18 13:58:52;;;;;;;0.00;0.00;;;;;;;;;;4996013;28;20046;-85
2022/11/18 14:01:19;;;;;;;0.00;0.00;;;;;;;;;;5012610;28;20145;-87
2022/11/18 14:03:50;;;;;;;0.00;0.00;;;;;;;;;;5012315;28;20054;-85
2022/11/18 14:06:35;;;;;;;0.00;0.00;;;;;;;;;;5012087;28;20134;-85
2022/11/18 14:09:10;;;;;;;0.00;0.00;;;;;;;;;;4995394;28;20037;-87
2022/11/18 14:11:37;;;;;;;0.00;0.00;;;;;;;;;;4995913;28;20049;-87
2022/11/18 14:14:04;;;;;;;0.00;0.00;;;;;;;;;;5011707;28;20060;-86
2022/11/18 14:16:30;;;;;;;0.00;0.00;;;;;;;;;;4995546;28;20049;-86
2022/11/18 14:18:56;;;;;;;0.00;0.00;;;;;;;;;;4995591;28;20061;-86
2022/11/18 14:21:29;;;;;;;0.00;0.00;;;;;;;;;;5012064;28;20095;-86
2022/11/18 14:23:57;;;;;;;0.00;0.00;;;;;;;;;;5013182;28;20129;-86
2022/11/18 14:26:34;;;;;;;0.00;0.00;;;;;;;;;;5012050;28;20125;-86
2022/11/18 14:29:04;;;;;;;0.00;0.00;;;;;;;;;;5011917;28;20453;-85
2022/11/18 14:31:34;;;;;;;0.00;0.00;;;;;;;;;;5011862;28;20042;-87
2022/11/18 14:34:18;;;;;;;0.00;0.00;;;;;;;;;;5011788;28;20041;-86
2022/11/18 14:36:50;;;;;;;0.00;0.00;;;;;;;;;;4989336;28;20150;-85
2022/11/18 14:39:30;;;;;;;0.10;0.10;;;;;;;;;;4990717;28;20182;-86
2022/11/18 14:41:57;;;;;;;0.30;0.30;;;;;;;;;;4984149;28;20092;-86
2022/11/18 14:44:24;;;;;;;0.00;0.00;;;;;;;;;;4984480;28;20046;-86
2022/11/18 14:47:10;;;;;;;0.00;0.00;;;;;;;;;;4957045;28;20078;-86
2022/11/18 14:49:36;;;;;;;0.00;0.00;;;;;;;;;;4962806;28;20050;-86
2022/11/18 14:52:03;;;;;;;0.00;0.00;;;;;;;;;;4972657;28;20113;-85
2022/11/18 14:54:29;;;;;;;1.15;0.17;;;;;;;;;;4956363;28;20074;-86
2022/11/18 14:56:57;;;;;;;0.00;0.00;;;;;;;;;;4972641;28;20050;-84
2022/11/18 14:59:23;;;;;;;0.45;0.45;;;;;;;;;;4983501;28;20046;-86
2022/11/18 15:01:49;;;;;;;0.63;0.43;;;;;;;;;;4960607;28;20072;-87
2022/11/18 15:04:16;;;;;;;0.20;0.03;;;;;;;;;;4956594;28;20095;-86
2022/11/18 15:06:42;;;;;;;0.25;0.13;;;;;;;;;;4972959;28;20045;-87
2022/11/18 15:09:08;;;;;;;0.00;0.00;;;;;;;;;;4972627;28;20093;-87
2022/11/18 15:11:35;;;;;;;0.00;0.00;;;;;;;;;;4972721;28;20325;-85
2022/11/18 15:14:02;;;;;;;0.00;0.00;;;;;;;;;;4972295;28;20046;-86
2022/11/18 15:16:29;;;;;;;0.00;0.00;;;;;;;;;;4956426;28;20049;-86
2022/11/18 15:18:57;;;;;;;0.00;0.00;;;;;;;;;;4972318;28;20050;-88
2022/11/18 15:21:24;;;;;;;0.00;0.00;;;;;;;;;;4956733;28;20376;-87
2022/11/18 15:23:50;;;;;;;0.00;0.00;;;;;;;;;;4972019;28;20059;-86
2022/11/18 15:26:18;;;;;;;0.00;0.00;;;;;;;;;;4956729;28;20061;-85
2022/11/18 15:28:45;;;;;;;0.08;0.08;;;;;;;;;;4959588;28;20085;-87
2022/11/18 15:31:11;;;;;;;0.00;0.00;;;;;;;;;;4975913;28;20061;-86
2022/11/18 15:33:37;;;;;;;0.00;0.00;;;;;;;;;;4959794;28;20051;-86
2022/11/18 15:36:03;;;;;;;0.00;0.00;;;;;;;;;;4975904;28;20051;-87
2022/11/18 15:38:29;;;;;;;0.03;0.03;;;;;;;;;;4975793;28;20436;-86
2022/11/18 15:40:57;;;;;;;0.00;0.00;;;;;;;;;;4999235;28;20088;-88
2022/11/18 15:43:23;;;;;;;0.00;0.00;;;;;;;;;;5004534;28;20057;-87